createdAt,value
2023-05-06T00:01:23.026Z,59.70
2023-05-06T00:03:49.959Z,59.90
2023-05-06T00:06:16.699Z,60.70
2023-05-06T00:08:43.269Z,60.20
2023-05-06T00:11:09.880Z,59.80
2023-05-06T00:13:37.916Z,59.40
2023-05-06T00:16:04.708Z,59.20
2023-05-06T00:18:31.315Z,59.70
2023-05-06T00:20:57.873Z,59.50
2023-05-06T00:23:24.467Z,59.50
2023-05-06T00:25:53.048Z,60.20
2023-05-06T00:28:19.594Z,59.50
2023-05-06T00:30:46.291Z,59.00
2023-05-06T00:33:12.899Z,59.60
2023-05-06T00:35:39.470Z,59.40
2023-05-06T00:38:10.241Z,59.60
2023-05-06T00:40:36.948Z,59.80
2023-05-06T00:43:03.742Z,59.50
2023-05-06T00:45:30.572Z,59.30
2023-05-06T00:47:57.720Z,59.80
2023-05-06T00:50:24.767Z,60.00
2023-05-06T00:52:51.576Z,60.30
2023-05-06T00:55:18.255Z,60.40
2023-05-06T00:57:44.893Z,60.30
2023-05-06T01:00:11.768Z,60.30
2023-05-06T01:02:47.015Z,60.60
2023-05-06T01:05:15.763Z,60.50
2023-05-06T01:07:46.293Z,60.20
2023-05-06T01:10:48.688Z,59.90
2023-05-06T01:13:21.479Z,59.90
2023-05-06T01:15:51.562Z,60.30
2023-05-06T01:18:20.937Z,60.20
2023-05-06T01:20:49.863Z,60.50
2023-05-06T01:23:17.071Z,60.40
2023-05-06T01:25:43.814Z,60.90
2023-05-06T01:28:11.567Z,60.70
2023-05-06T01:30:59.475Z,60.50
2023-05-06T01:33:36.903Z,60.30
2023-05-06T01:36:23.942Z,60.30
2023-05-06T01:38:50.622Z,60.50
2023-05-06T01:41:17.873Z,60.20
2023-05-06T01:43:45.278Z,60.00
2023-05-06T01:46:14.879Z,60.70
2023-05-06T01:48:41.686Z,60.70
2023-05-06T01:51:08.353Z,61.20
2023-05-06T01:53:34.931Z,60.90
2023-05-06T01:56:01.520Z,61.00
2023-05-06T01:58:28.099Z,60.70
2023-05-06T02:00:54.694Z,60.30
2023-05-06T02:03:21.459Z,60.20
2023-05-06T02:05:48.480Z,60.00
2023-05-06T02:08:15.251Z,60.50
2023-05-06T02:10:41.784Z,60.20
2023-05-06T02:13:09.569Z,60.30
2023-05-06T02:15:36.190Z,60.90
2023-05-06T02:18:02.962Z,60.40
2023-05-06T02:20:29.534Z,60.50
2023-05-06T02:22:56.310Z,60.60
2023-05-06T02:25:23.120Z,60.40
2023-05-06T02:27:49.902Z,60.20
2023-05-06T02:30:16.523Z,60.30
2023-05-06T02:32:43.161Z,60.10
2023-05-06T02:35:10.073Z,60.50
2023-05-06T02:37:36.850Z,60.80
2023-05-06T02:40:04.585Z,60.90
2023-05-06T02:42:31.173Z,60.60
2023-05-06T02:44:57.732Z,60.50
2023-05-06T02:47:24.391Z,60.50
2023-05-06T02:49:50.973Z,60.50
2023-05-06T02:52:17.622Z,60.10
2023-05-06T02:54:44.147Z,59.90
2023-05-06T02:57:10.726Z,60.00
2023-05-06T02:59:37.362Z,59.90
2023-05-06T03:02:04.042Z,60.50
2023-05-06T03:04:30.632Z,60.60
2023-05-06T03:06:57.490Z,61.20
2023-05-06T03:09:24.092Z,60.50
2023-05-06T03:11:50.689Z,60.60
2023-05-06T03:14:17.278Z,60.50
2023-05-06T03:16:43.905Z,60.30
2023-05-06T03:19:10.498Z,60.10
2023-05-06T03:21:37.261Z,60.30
2023-05-06T03:24:03.985Z,60.00
2023-05-06T03:26:30.629Z,60.20
2023-05-06T03:28:57.204Z,60.40
2023-05-06T03:31:23.871Z,60.70
2023-05-06T03:33:50.645Z,60.60
2023-05-06T03:36:17.215Z,60.60
2023-05-06T03:38:43.835Z,60.60
2023-05-06T03:41:10.548Z,60.40
2023-05-06T03:43:37.389Z,60.10
2023-05-06T03:46:04.038Z,60.30
2023-05-06T03:48:31.307Z,59.90
2023-05-06T03:50:57.911Z,60.10
2023-05-06T03:53:24.478Z,60.00
2023-05-06T03:55:51.045Z,60.20
2023-05-06T03:58:17.667Z,60.60
2023-05-06T04:00:44.299Z,60.40
2023-05-06T04:03:11.043Z,60.40
2023-05-06T04:05:37.770Z,60.10
2023-05-06T04:08:04.433Z,60.00
2023-05-06T04:10:31.100Z,59.60
2023-05-06T04:12:57.702Z,59.40
2023-05-06T04:15:24.319Z,59.30
2023-05-06T04:17:50.893Z,59.30
2023-05-06T04:20:17.595Z,59.20
2023-05-06T04:22:44.152Z,59.30
2023-05-06T04:25:12.123Z,59.50
2023-05-06T04:27:38.917Z,59.60
2023-05-06T04:30:06.093Z,59.90
2023-05-06T04:32:34.078Z,59.90
2023-05-06T04:35:00.756Z,60.00
2023-05-06T04:37:28.363Z,59.50
2023-05-06T04:39:55.826Z,59.70
2023-05-06T04:42:22.674Z,59.60
2023-05-06T04:44:49.256Z,59.90
2023-05-06T04:47:16.202Z,59.80
2023-05-06T04:49:42.755Z,59.80
2023-05-06T04:52:09.346Z,59.90
2023-05-06T04:54:36.568Z,59.90
2023-05-06T04:57:03.485Z,59.90
2023-05-06T04:59:30.068Z,59.60
2023-05-06T05:01:56.631Z,59.50
2023-05-06T05:04:23.229Z,59.60
2023-05-06T05:06:49.798Z,59.80
2023-05-06T05:09:16.394Z,60.00
2023-05-06T05:11:42.993Z,60.10
2023-05-06T05:14:09.593Z,60.40
2023-05-06T05:16:36.220Z,60.10
2023-05-06T05:19:03.791Z,60.00
2023-05-06T05:21:30.807Z,60.10
2023-05-06T05:23:57.385Z,59.80
2023-05-06T05:26:23.937Z,59.60
2023-05-06T05:28:50.519Z,59.50
2023-05-06T05:31:17.150Z,59.70
2023-05-06T05:33:43.844Z,59.90
2023-05-06T05:36:12.414Z,59.80
2023-05-06T05:38:39.052Z,60.10
2023-05-06T05:41:05.691Z,60.00
2023-05-06T05:43:32.357Z,59.90
2023-05-06T05:45:58.977Z,59.70
2023-05-06T05:48:25.658Z,59.60
2023-05-06T05:50:52.307Z,59.50
2023-05-06T05:53:18.861Z,59.60
2023-05-06T05:55:45.547Z,59.60
2023-05-06T05:58:12.199Z,59.70
2023-05-06T06:00:38.782Z,60.00
2023-05-06T06:03:05.657Z,60.30
2023-05-06T06:05:32.443Z,60.10
2023-05-06T06:07:59.972Z,59.80
2023-05-06T06:10:27.234Z,59.50
2023-05-06T06:12:53.843Z,59.40
2023-05-06T06:15:21.065Z,59.50
2023-05-06T06:17:47.708Z,59.90
2023-05-06T06:20:14.313Z,59.70
2023-05-06T06:22:41.042Z,60.10
2023-05-06T06:25:07.992Z,59.90
2023-05-06T06:27:36.037Z,59.90
2023-05-06T06:30:02.912Z,59.80
2023-05-06T06:32:29.532Z,59.30
2023-05-06T06:34:56.144Z,59.40
2023-05-06T06:37:22.692Z,59.60
2023-05-06T06:39:49.334Z,59.40
2023-05-06T06:42:15.876Z,59.50
2023-05-06T06:44:42.452Z,59.50
2023-05-06T06:47:09.295Z,59.60
2023-05-06T06:49:35.951Z,59.60
2023-05-06T06:52:02.940Z,59.70
2023-05-06T06:54:29.630Z,59.30
2023-05-06T06:56:57.290Z,59.20
2023-05-06T06:59:24.126Z,59.40
2023-05-06T07:01:50.949Z,59.40
2023-05-06T07:04:17.616Z,59.70
2023-05-06T07:06:44.324Z,59.90
2023-05-06T07:09:12.017Z,59.80
2023-05-06T07:11:38.905Z,59.70
2023-05-06T07:14:05.495Z,59.40
2023-05-06T07:16:32.148Z,59.30
2023-05-06T07:18:58.780Z,59.20
2023-05-06T07:21:25.621Z,59.10
2023-05-06T07:23:52.192Z,59.30
2023-05-06T07:26:18.762Z,59.40
2023-05-06T07:28:45.324Z,59.20
2023-05-06T07:31:11.957Z,59.20
2023-05-06T07:33:38.558Z,59.00
2023-05-06T07:36:05.254Z,58.90
2023-05-06T07:38:31.812Z,58.90
2023-05-06T07:40:58.390Z,58.20
2023-05-06T07:43:25.065Z,58.80
2023-05-06T07:45:51.652Z,58.80
2023-05-06T07:48:20.162Z,58.70
2023-05-06T07:50:47.088Z,58.90
2023-05-06T07:53:13.882Z,59.00
2023-05-06T07:55:40.443Z,58.70
2023-05-06T07:58:07.025Z,58.90
2023-05-06T08:00:33.755Z,58.90
2023-05-06T08:03:00.846Z,58.90
2023-05-06T08:05:27.530Z,59.00
2023-05-06T08:07:54.185Z,59.10
2023-05-06T08:10:22.219Z,59.20
2023-05-06T08:12:48.977Z,59.30
2023-05-06T08:15:16.987Z,59.10
2023-05-06T08:17:43.567Z,59.10
2023-05-06T08:20:10.933Z,59.00
2023-05-06T08:22:37.538Z,59.10
2023-05-06T08:25:04.398Z,59.20
2023-05-06T08:27:31.101Z,59.10
2023-05-06T08:29:57.669Z,59.40
2023-05-06T08:32:24.311Z,59.40
2023-05-06T08:34:50.971Z,59.00
2023-05-06T08:37:17.549Z,59.10
2023-05-06T08:39:45.547Z,59.00
2023-05-06T08:42:12.476Z,59.00
2023-05-06T08:44:39.172Z,59.20
2023-05-06T08:47:05.949Z,59.30
2023-05-06T08:49:32.711Z,59.00
2023-05-06T08:51:59.502Z,59.10
2023-05-06T08:54:26.676Z,59.00
2023-05-06T08:56:53.998Z,59.10
2023-05-06T08:59:24.638Z,59.40
2023-05-06T09:01:51.695Z,59.60
2023-05-06T09:04:19.033Z,59.70
2023-05-06T09:06:46.169Z,59.20
2023-05-06T09:09:14.788Z,59.20
2023-05-06T09:11:41.382Z,59.20
2023-05-06T09:14:10.016Z,59.30
2023-05-06T09:16:37.303Z,59.50
2023-05-06T09:19:04.156Z,59.50
2023-05-06T09:21:38.008Z,59.60
2023-05-06T09:24:05.937Z,59.40
2023-05-06T09:26:33.210Z,59.40
2023-05-06T09:28:59.958Z,59.30
2023-05-06T09:31:27.043Z,59.10
2023-05-06T09:33:54.460Z,59.30
2023-05-06T09:36:21.505Z,59.10
2023-05-06T09:38:48.136Z,59.20
2023-05-06T09:41:15.068Z,59.10
2023-05-06T09:43:46.143Z,59.00
2023-05-06T09:46:12.799Z,59.20
2023-05-06T09:48:39.507Z,59.20
2023-05-06T09:51:07.594Z,59.10
2023-05-06T09:53:35.050Z,59.10
2023-05-06T09:56:02.764Z,59.50
2023-05-06T09:58:30.520Z,59.20
2023-05-06T10:00:57.426Z,59.20
2023-05-06T10:03:25.057Z,59.30
2023-05-06T10:05:52.824Z,59.40
2023-05-06T10:08:19.512Z,59.60
2023-05-06T10:10:47.507Z,59.50
2023-05-06T10:13:14.930Z,59.50
2023-05-06T10:15:42.348Z,59.30
2023-05-06T10:18:09.352Z,59.40
2023-05-06T10:20:36.036Z,59.50
2023-05-06T10:23:09.730Z,59.50
2023-05-06T10:25:38.337Z,59.50
2023-05-06T10:28:11.551Z,59.50
2023-05-06T10:30:50.036Z,59.50
2023-05-06T10:33:16.990Z,59.30
2023-05-06T10:35:50.653Z,59.60
2023-05-06T10:38:17.204Z,59.60
2023-05-06T10:40:44.101Z,59.70
2023-05-06T10:43:20.696Z,59.80
2023-05-06T10:46:02.724Z,59.70
2023-05-06T10:48:29.837Z,60.30
2023-05-06T10:51:15.721Z,59.60
2023-05-06T10:53:55.185Z,59.70
2023-05-06T10:56:21.786Z,59.70
2023-05-06T10:58:48.530Z,59.80
2023-05-06T11:01:15.376Z,59.80
2023-05-06T11:03:43.114Z,59.80
2023-05-06T11:06:09.904Z,59.90
2023-05-06T11:08:36.640Z,59.80
2023-05-06T11:11:23.160Z,59.60
2023-05-06T11:13:52.132Z,59.70
2023-05-06T11:16:39.009Z,59.60
2023-05-06T11:19:05.742Z,59.50
2023-05-06T11:21:32.318Z,59.50
2023-05-06T11:23:58.910Z,60.20
2023-05-06T11:26:25.636Z,59.50
2023-05-06T11:28:52.261Z,59.50
2023-05-06T11:31:19.030Z,59.50
2023-05-06T11:33:47.016Z,59.40
2023-05-06T11:36:17.815Z,59.50
2023-05-06T11:38:52.415Z,59.40
2023-05-06T11:41:19.265Z,59.60
2023-05-06T11:43:52.386Z,60.10
2023-05-06T11:46:19.406Z,59.30
2023-05-06T11:48:46.606Z,59.40
2023-05-06T11:51:13.162Z,59.30
2023-05-06T11:53:39.958Z,59.40
2023-05-06T11:56:06.993Z,59.50
2023-05-06T11:58:33.589Z,59.60
2023-05-06T12:01:01.081Z,59.60
2023-05-06T12:03:28.788Z,59.70
2023-05-06T12:05:56.061Z,59.90
2023-05-06T12:08:27.899Z,59.60
2023-05-06T12:10:55.949Z,60.20
2023-05-06T12:13:22.610Z,59.90
2023-05-06T12:15:50.518Z,59.70
2023-05-06T12:18:17.314Z,59.80
2023-05-06T12:20:44.196Z,59.80
2023-05-06T12:23:15.158Z,60.60
2023-05-06T12:25:42.715Z,59.80
2023-05-06T12:28:15.825Z,59.60
2023-05-06T12:30:42.466Z,59.60
2023-05-06T12:33:09.629Z,59.70
2023-05-06T12:35:36.321Z,59.60
2023-05-06T12:38:09.705Z,59.80
2023-05-06T12:40:36.563Z,59.80
2023-05-06T12:43:03.312Z,59.80
2023-05-06T12:45:30.057Z,60.30
2023-05-06T12:47:57.729Z,59.60
2023-05-06T12:50:33.706Z,59.60
2023-05-06T12:53:00.694Z,59.60
2023-05-06T12:55:27.293Z,59.60
2023-05-06T12:57:56.025Z,59.50
2023-05-06T13:00:23.835Z,60.00
2023-05-06T13:02:50.434Z,59.80
2023-05-06T13:05:17.421Z,59.70
2023-05-06T13:07:44.154Z,59.60
2023-05-06T13:10:11.361Z,59.50
2023-05-06T13:12:38.496Z,59.50
2023-05-06T13:15:05.427Z,59.70
2023-05-06T13:17:32.056Z,59.50
2023-05-06T13:19:58.693Z,60.10
2023-05-06T13:22:25.282Z,59.60
2023-05-06T13:24:51.862Z,59.60
2023-05-06T13:27:18.430Z,59.40
2023-05-06T13:29:45.121Z,59.50
2023-05-06T13:32:11.718Z,59.10
2023-05-06T13:34:38.280Z,59.20
2023-05-06T13:37:04.875Z,59.20
2023-05-06T13:39:31.566Z,58.90
2023-05-06T13:41:58.188Z,59.10
2023-05-06T13:44:24.848Z,58.70
2023-05-06T13:46:52.453Z,58.70
2023-05-06T13:49:19.123Z,58.80
2023-05-06T13:51:45.694Z,58.90
2023-05-06T13:54:12.384Z,58.70
2023-05-06T13:56:38.939Z,58.90
2023-05-06T13:59:05.588Z,58.70
2023-05-06T14:01:32.654Z,59.10
2023-05-06T14:03:59.328Z,59.00
2023-05-06T14:06:27.547Z,59.00
2023-05-06T14:08:54.381Z,59.30
2023-05-06T14:11:21.162Z,59.10
2023-05-06T14:13:47.890Z,59.10
2023-05-06T14:16:16.470Z,59.20
2023-05-06T14:18:43.225Z,59.00
2023-05-06T14:21:09.803Z,59.40
2023-05-06T14:23:37.867Z,59.10
2023-05-06T14:26:04.488Z,59.20
2023-05-06T14:28:31.078Z,59.40
2023-05-06T14:30:58.262Z,59.40
2023-05-06T14:33:24.875Z,59.40
2023-05-06T14:35:54.520Z,59.40
2023-05-06T14:38:21.056Z,59.30
2023-05-06T14:40:47.644Z,59.20
2023-05-06T14:43:14.226Z,59.40
2023-05-06T14:45:40.957Z,58.70
2023-05-06T14:48:07.754Z,59.30
2023-05-06T14:50:34.454Z,59.30
2023-05-06T14:53:03.464Z,59.10
2023-05-06T14:55:30.637Z,59.30
2023-05-06T14:57:57.221Z,59.40
2023-05-06T15:00:23.828Z,59.30
2023-05-06T15:02:50.503Z,59.30
2023-05-06T15:05:17.230Z,59.20
2023-05-06T15:07:43.825Z,59.20
2023-05-06T15:10:10.518Z,59.20
2023-05-06T15:12:37.667Z,59.30
2023-05-06T15:15:05.153Z,59.40
2023-05-06T15:17:32.506Z,59.30
2023-05-06T15:19:59.173Z,59.60
2023-05-06T15:22:25.747Z,59.60
2023-05-06T15:24:52.482Z,59.40
2023-05-06T15:27:19.105Z,59.40
2023-05-06T15:29:45.831Z,59.30
2023-05-06T15:32:12.401Z,59.20
2023-05-06T15:34:38.989Z,59.10
2023-05-06T15:37:05.620Z,59.00
2023-05-06T15:39:38.727Z,59.00
2023-05-06T15:42:05.562Z,58.90
2023-05-06T15:44:32.602Z,58.90
2023-05-06T15:46:59.181Z,58.90
2023-05-06T15:49:49.299Z,58.70
2023-05-06T15:52:12.356Z,58.80
2023-05-06T15:54:40.900Z,58.90
2023-05-06T15:57:07.755Z,58.90
2023-05-06T15:59:34.369Z,58.90
2023-05-06T16:02:26.180Z,58.80
2023-05-06T16:04:47.714Z,59.10
2023-05-06T16:07:15.104Z,59.10
2023-05-06T16:09:42.652Z,59.00
2023-05-06T16:12:09.962Z,59.10
2023-05-06T16:14:36.595Z,59.20
2023-05-06T16:17:03.446Z,59.20
2023-05-06T16:19:34.927Z,59.30
2023-05-06T16:22:02.162Z,59.20
2023-05-06T16:24:28.800Z,59.00
2023-05-06T16:26:55.563Z,59.00
2023-05-06T16:29:22.248Z,59.10
2023-05-06T16:31:49.123Z,59.00
2023-05-06T16:34:15.878Z,59.40
2023-05-06T16:36:42.551Z,59.20
2023-05-06T16:39:09.109Z,59.10
2023-05-06T16:41:35.643Z,59.30
2023-05-06T16:44:02.224Z,59.20
2023-05-06T16:46:29.027Z,59.30
2023-05-06T16:48:55.837Z,59.30
2023-05-06T16:51:22.700Z,59.20
2023-05-06T16:53:49.438Z,59.00
2023-05-06T16:56:16.109Z,59.00
2023-05-06T16:58:42.937Z,59.00
2023-05-06T17:01:09.737Z,59.10
2023-05-06T17:03:37.787Z,59.10
2023-05-06T17:06:04.594Z,59.10
2023-05-06T17:08:36.019Z,59.10
2023-05-06T17:11:05.713Z,59.20
2023-05-06T17:13:32.393Z,59.20
2023-05-06T17:15:58.999Z,59.20
2023-05-06T17:18:25.590Z,59.20
2023-05-06T17:20:56.528Z,59.10
2023-05-06T17:23:23.742Z,59.00
2023-05-06T17:25:50.588Z,58.90
2023-05-06T17:28:18.511Z,58.70
2023-05-06T17:30:45.793Z,58.60
2023-05-06T17:33:12.690Z,58.50
2023-05-06T17:35:39.493Z,58.30
2023-05-06T17:38:06.079Z,58.40
2023-05-06T17:40:32.669Z,58.50
2023-05-06T17:42:59.248Z,58.50
2023-05-06T17:45:26.770Z,58.50
2023-05-06T17:47:53.617Z,58.60
2023-05-06T17:50:20.334Z,58.70
2023-05-06T17:52:50.640Z,58.90
2023-05-06T17:55:17.793Z,58.80
2023-05-06T17:57:44.670Z,59.00
2023-05-06T18:00:11.581Z,58.80
2023-05-06T18:02:38.406Z,58.80
2023-05-06T18:05:06.386Z,58.90
2023-05-06T18:07:33.108Z,58.80
2023-05-06T18:09:59.808Z,58.80
2023-05-06T18:12:26.405Z,58.90
2023-05-06T18:14:53.127Z,58.90
2023-05-06T18:17:19.677Z,59.00
2023-05-06T18:19:46.223Z,58.90
2023-05-06T18:22:13.353Z,59.00
2023-05-06T18:24:39.947Z,58.70
2023-05-06T18:27:06.707Z,58.90
2023-05-06T18:29:34.769Z,58.70
2023-05-06T18:32:01.605Z,58.80
2023-05-06T18:34:28.269Z,58.60
2023-05-06T18:36:54.832Z,58.80
2023-05-06T18:39:22.890Z,58.90
2023-05-06T18:41:49.434Z,58.80
2023-05-06T18:44:16.005Z,58.90
2023-05-06T18:46:42.576Z,58.90
2023-05-06T18:49:09.154Z,59.00
2023-05-06T18:51:36.107Z,59.00
2023-05-06T18:54:02.770Z,58.80
2023-05-06T18:56:29.399Z,58.80
2023-05-06T18:58:56.487Z,58.80
2023-05-06T19:01:23.137Z,58.90
2023-05-06T19:03:49.816Z,58.80
2023-05-06T19:06:16.647Z,59.00
2023-05-06T19:08:43.437Z,59.10
2023-05-06T19:11:16.787Z,59.10
2023-05-06T19:13:43.884Z,59.00
2023-05-06T19:16:10.998Z,58.80
2023-05-06T19:18:37.652Z,58.90
2023-05-06T19:21:04.527Z,58.80
2023-05-06T19:23:32.007Z,58.90
2023-05-06T19:25:58.683Z,58.90
2023-05-06T19:28:25.289Z,59.00
2023-05-06T19:30:51.876Z,58.90
2023-05-06T19:33:18.558Z,59.00
2023-05-06T19:35:45.208Z,59.30
2023-05-06T19:38:11.772Z,59.10
2023-05-06T19:40:38.348Z,59.20
2023-05-06T19:43:05.219Z,59.20
2023-05-06T19:45:32.532Z,58.90
2023-05-06T19:47:59.777Z,59.20
2023-05-06T19:50:31.216Z,59.00
2023-05-06T19:52:57.761Z,58.90
2023-05-06T19:55:24.297Z,58.80
2023-05-06T19:57:51.014Z,58.80
2023-05-06T20:00:20.081Z,58.60
2023-05-06T20:02:46.889Z,58.60
2023-05-06T20:05:14.105Z,58.40
2023-05-06T20:07:41.429Z,58.20
2023-05-06T20:10:10.124Z,58.10
2023-05-06T20:12:36.865Z,58.20
2023-05-06T20:15:03.792Z,58.10
2023-05-06T20:17:30.713Z,58.70
2023-05-06T20:19:58.590Z,58.30
2023-05-06T20:22:25.584Z,58.30
2023-05-06T20:24:53.412Z,58.50
2023-05-06T20:27:23.086Z,58.60
2023-05-06T20:29:51.651Z,58.70
2023-05-06T20:32:18.296Z,58.80
2023-05-06T20:34:44.850Z,58.80
2023-05-06T20:37:11.970Z,58.70
2023-05-06T20:39:38.709Z,58.70
2023-05-06T20:42:05.602Z,58.80
2023-05-06T20:44:32.229Z,58.90
2023-05-06T20:46:59.012Z,59.00
2023-05-06T20:49:26.018Z,59.10
2023-05-06T20:51:52.566Z,59.10
2023-05-06T20:54:19.178Z,59.20
2023-05-06T20:56:45.812Z,59.20
2023-05-06T20:59:12.436Z,59.30
2023-05-06T21:01:39.294Z,59.20
2023-05-06T21:04:06.298Z,59.00
2023-05-06T21:06:32.977Z,59.00
2023-05-06T21:08:59.815Z,59.00
2023-05-06T21:11:28.784Z,59.00
2023-05-06T21:13:55.781Z,59.10
2023-05-06T21:16:22.432Z,59.00
2023-05-06T21:18:49.175Z,59.20
2023-05-06T21:21:15.996Z,59.20
2023-05-06T21:23:42.764Z,59.10
2023-05-06T21:26:10.554Z,59.00
2023-05-06T21:28:37.274Z,59.00
2023-05-06T21:31:04.157Z,59.00
2023-05-06T21:33:30.878Z,59.10
2023-05-06T21:35:57.544Z,59.00
2023-05-06T21:38:24.275Z,59.00
2023-05-06T21:40:50.944Z,59.10
2023-05-06T21:43:18.074Z,59.10
2023-05-06T21:45:44.691Z,59.00
2023-05-06T21:48:11.650Z,59.20
2023-05-06T21:50:38.607Z,59.10
2023-05-06T21:53:05.484Z,59.30
2023-05-06T21:55:32.350Z,59.40
2023-05-06T21:57:59.389Z,59.40
2023-05-06T22:00:26.346Z,59.50
2023-05-06T22:02:53.289Z,59.40
2023-05-06T22:05:20.270Z,59.80
2023-05-06T22:07:46.924Z,59.10
2023-05-06T22:10:13.761Z,59.30
2023-05-06T22:12:40.508Z,59.40
2023-05-06T22:15:07.931Z,59.30
2023-05-06T22:17:34.865Z,59.30
2023-05-06T22:20:04.523Z,59.50
2023-05-06T22:22:31.673Z,59.50
2023-05-06T22:24:58.311Z,59.20
2023-05-06T22:27:24.948Z,59.40
2023-05-06T22:29:51.563Z,59.20
2023-05-06T22:32:18.289Z,59.20
2023-05-06T22:34:44.861Z,59.10
2023-05-06T22:37:11.450Z,59.20
2023-05-06T22:39:39.064Z,59.10
2023-05-06T22:42:05.714Z,59.10
2023-05-06T22:44:32.544Z,59.30
2023-05-06T22:46:59.192Z,59.30
2023-05-06T22:49:28.827Z,59.40
2023-05-06T22:51:56.291Z,59.30
2023-05-06T22:54:23.191Z,59.20
2023-05-06T22:56:49.839Z,59.10
2023-05-06T22:59:16.526Z,58.60
2023-05-06T23:01:43.253Z,59.00
2023-05-06T23:04:10.763Z,59.10
2023-05-06T23:06:38.281Z,59.10
2023-05-06T23:09:05.884Z,59.10
2023-05-06T23:11:32.460Z,59.00
2023-05-06T23:13:59.041Z,58.90
2023-05-06T23:16:26.330Z,59.00
2023-05-06T23:18:54.815Z,59.20
2023-05-06T23:21:21.550Z,59.30
2023-05-06T23:23:49.863Z,59.40
2023-05-06T23:26:16.624Z,59.40
2023-05-06T23:28:43.282Z,59.30
2023-05-06T23:31:09.872Z,59.30
2023-05-06T23:33:36.511Z,59.30
2023-05-06T23:36:03.310Z,59.20
2023-05-06T23:38:29.878Z,59.50
2023-05-06T23:40:56.605Z,59.40
2023-05-06T23:43:23.186Z,59.40
2023-05-06T23:45:49.783Z,60.20
2023-05-06T23:48:16.331Z,59.60
2023-05-06T23:50:42.882Z,59.50
2023-05-06T23:53:09.435Z,59.60
2023-05-06T23:55:36.026Z,59.40
2023-05-06T23:58:02.617Z,59.20
